Flight Track Log - Related Links

Times and Time Zones

All times are in EDT time to prevent confusion due to time zone crossing. See the SWA3317 flight status page for this flight to view local times or setup timezone preferences in your user account.

Time Position Orientation Groundspeed Altitude Reporting Facility
EDT Latitude Longitude Course Direction KTS MPH feet Rate Location/Type
Sun 10:18:58 AM 36.0772 -115.1039 91° East 176 203 3,400  Level Los Angeles Center
Sun 10:20:09 AM 36.0764 -115.0169 91° East 207 238 5,000 1,543 Climbing Los Angeles Center
Sun 10:21:18 AM 36.0325 -114.9486 128° Southeast 284 327 7,000 2,489 Climbing Los Angeles Center
Sun 10:22:24 AM 35.9592 -115.0181 217° Southwest 300 345 10,600 2,551 Climbing Los Angeles Center
Sun 10:23:25 AM 35.9553 -115.1222 267° West 331 381 12,400 2,311 Climbing Los Angeles Center
Sun 10:24:26 AM 35.9444 -115.2492 264° West 359 413 15,300 2,976 Climbing Los Angeles Center
Sun 10:25:28 AM 35.9361 -115.3806 266° West 376 433 18,500 2,878 Climbing Los Angeles Center
Sun 10:26:29 AM 35.9558 -115.5119 281° West 395 455 21,200 2,634 Climbing Los Angeles Center
Sun 10:27:31 AM 36.0172 -115.6336 302° West 413 475 23,900 2,439 Climbing Los Angeles Center
Sun 10:28:32 AM 36.0797 -115.7578 302° West 418 481 26,200 2,213 Climbing Los Angeles Center
Sun 10:29:33 AM 36.1511 -115.9028 301° West 432 497 28,400 1,854 Climbing Los Angeles Center
Sun 10:30:35 AM 36.2169 -116.0336 302° West 444 511 30,000 1,561 Climbing Los Angeles Center
Sun 10:31:36 AM 36.2850 -116.1711 302° West 462 532 31,600 1,820 Climbing Los Angeles Center
Sun 10:32:37 AM 36.3506 -116.3033 302° West 469 540 33,700 2,049 Climbing Los Angeles Center
Sun 10:33:39 AM 36.4156 -116.4375 301° West 459 528 35,800 1,761 Climbing Los Angeles Center
Sun 10:35:41 AM 36.5464 -116.7056 301° West 441 507 39,100 1,370 Climbing Los Angeles Center
Sun 10:36:43 AM 36.6381 -116.8014 320° Northwest 437 503 40,000 439 Climbing Los Angeles Center
Sun 10:37:44 AM 36.7569 -116.8914 329° Northwest 444 511 40,000  Level Los Angeles Center
Sun 10:38:45 AM 36.8483 -116.9622 328° Northwest 442 509 40,000  Level Los Angeles Center
Sun 10:39:47 AM 36.9733 -117.0606 328° Northwest 441 507 40,000  Level Los Angeles Center
Sun 10:40:48 AM 37.0789 -117.1361 330° Northwest 437 503 40,000  Level Los Angeles Center
Sun 10:41:49 AM 37.1853 -117.2100 331° Northwest 437 503 40,000  Level Los Angeles Center
Sun 10:42:51 AM 37.2925 -117.2861 331° Northwest 439 505 40,000  Level Los Angeles Center
Sun 10:43:52 AM 37.3994 -117.3619 331° Northwest 439 505 40,000  Level Los Angeles Center
Sun 10:44:53 AM 37.5086 -117.4392 331° Northwest 444 511 40,000  Level Los Angeles Center
Sun 10:45:55 AM 37.6172 -117.5161 331° Northwest 445 512 40,000  Level Los Angeles Center
Sun 10:46:56 AM 37.7261 -117.5942 330° Northwest 447 514 40,000  Level Los Angeles Center
Sun 10:47:58 AM 37.8353 -117.6722 331° Northwest 447 514 40,000  Level Los Angeles Center
Sun 10:49:20 AM 37.9856 -117.7817 330° Northwest 444 511 40,000  Level Oakland Center
Sun 10:50:21 AM 38.0933 -117.8583 331° Northwest 441 507 40,000  Level Oakland Center
Sun 10:51:21 AM 38.1997 -117.9369 330° Northwest 441 507 40,000  Level Oakland Center
Sun 10:52:22 AM 38.3061 -118.0142 330° Northwest 438 504 40,000  Level Oakland Center
Sun 10:53:23 AM 38.4125 -118.0911 330° Northwest 438 504 40,000  Level Oakland Center
Sun 10:54:24 AM 38.5197 -118.1703 330° Northwest 439 505 40,000  Level Oakland Center
Sun 10:55:25 AM 38.6253 -118.2478 330° Northwest 438 504 40,000  Level Oakland Center
Sun 10:56:26 AM 38.7314 -118.3283 329° Northwest 442 509 40,000  Level Oakland Center
Sun 10:57:27 AM 38.8375 -118.4069 330° Northwest 441 507 40,000  Level Oakland Center
Sun 10:58:28 AM 38.9442 -118.4856 330° Northwest 440 506 40,000  Level Oakland Center
Sun 10:59:29 AM 39.0514 -118.5656 330° Northwest 443 510 40,000  Level Oakland Center
Sun 11:00:30 AM 39.1786 -118.6628 329° Northwest 442 509 40,000  Level Oakland Center
Sun 11:02:32 AM 39.3922 -118.8233 330° Northwest 447 514 40,000  Level Oakland Center
Sun 11:03:33 AM 39.4878 -118.8964 329° Northwest 452 520 40,000  Level Oakland Center
Sun 11:04:34 AM 39.5953 -118.9778 330° Northwest 445 512 40,000  Level Oakland Center
Sun 11:05:35 AM 39.7008 -119.0597 329° Northwest 441 507 40,000  Level Oakland Center
Sun 11:06:36 AM 39.8289 -119.1572 330° Northwest 444 511 40,000  Level Oakland Center
Sun 11:07:37 AM 39.9347 -119.2397 329° Northwest 444 511 40,000  Level Oakland Center
Sun 11:08:38 AM 40.0400 -119.3206 330° Northwest 438 504 40,000  Level Oakland Center
Sun 11:09:39 AM 40.1456 -119.4019 329° Northwest 439 505 40,000  Level Oakland Center
Sun 11:10:40 AM 40.2503 -119.4847 329° Northwest 439 505 40,000  Level Oakland Center
Sun 11:11:41 AM 40.3561 -119.5681 329° Northwest 443 510 40,000  Level Oakland Center
Sun 11:12:42 AM 40.4608 -119.6497 329° Northwest 439 505 40,000  Level Oakland Center
Sun 11:13:43 AM 40.5592 -119.7269 329° Northwest 438 504 40,000  Level Oakland Center
Sun 11:14:44 AM 40.6650 -119.8092 329° Northwest 443 510 40,000  Level Oakland Center
Sun 11:15:45 AM 40.7683 -119.8956 328° Northwest 442 509 40,000  Level Oakland Center
Sun 11:16:46 AM 40.8944 -119.9956 329° Northwest 443 510 40,000  Level Oakland Center
Sun 11:17:47 AM 41.0000 -120.0797 329° Northwest 445 512 40,000  Level Oakland Center
Sun 11:18:48 AM 41.1058 -120.1639 329° Northwest 444 511 40,000  Level Oakland Center
Sun 11:19:50 AM 41.2111 -120.2511 328° Northwest 446 513 40,000  Level Oakland Center
Sun 11:20:51 AM 41.3169 -120.3344 329° Northwest 444 511 40,000  Level Oakland Center
Sun 11:21:52 AM 41.4219 -120.4206 328° Northwest 444 511 40,000  Level Oakland Center
Sun 11:22:53 AM 41.5283 -120.5044 329° Northwest 445 512 40,000  Level Oakland Center
Sun 11:24:18 AM 41.6758 -120.6222 329° Northwest 440 506 40,000  Level Seattle Center
Sun 11:25:19 AM 41.7764 -120.7097 327° Northwest 435 501 40,000  Level Seattle Center
Sun 11:26:20 AM 41.8819 -120.7939 329° Northwest 442 509 40,000  Level Seattle Center
Sun 11:27:21 AM 42.0086 -120.8986 328° Northwest 447 514 40,000  Level Seattle Center
Sun 11:28:22 AM 42.1133 -120.9864 328° Northwest 446 513 40,000  Level Seattle Center
Sun 11:29:23 AM 42.2186 -121.0736 328° Northwest 448 516 40,000  Level Seattle Center
Sun 11:30:24 AM 42.3233 -121.1622 328° Northwest 449 517 40,000  Level Seattle Center
Sun 11:31:25 AM 42.4281 -121.2517 328° Northwest 449 517 40,000  Level Seattle Center
Sun 11:32:26 AM 42.5322 -121.3394 328° Northwest 446 513 40,000  Level Seattle Center
Sun 11:33:27 AM 42.6358 -121.4275 328° Northwest 442 509 40,000  Level Seattle Center
Sun 11:34:28 AM 42.7389 -121.5150 328° Northwest 438 504 40,000  Level Seattle Center
Sun 11:35:29 AM 42.8411 -121.6022 328° Northwest 436 502 40,000  Level Seattle Center
Sun 11:36:30 AM 42.9633 -121.7064 328° Northwest 434 499 40,000  Level Seattle Center
Sun 11:37:31 AM 43.0642 -121.7975 327° Northwest 436 502 40,000  Level Seattle Center
Sun 11:38:33 AM 43.1644 -121.8811 329° Northwest 424 488 40,000  Level Seattle Center
Sun 11:39:33 AM 43.2664 -121.9692 328° Northwest 431 496 40,000  Level Seattle Center
Sun 11:40:34 AM 43.3781 -122.0661 328° Northwest 439 505 40,000  Level Seattle Center
Sun 11:41:35 AM 43.4806 -122.1564 327° Northwest 437 503 40,000 -836 Level Seattle Center
Sun 11:42:36 AM 43.5842 -122.2469 328° Northwest 437 503 38,300 -2,164 Descending Seattle Center
Sun 11:43:37 AM 43.6892 -122.3394 328° Northwest 445 512 35,600 -2,410 Descending Seattle Center
Sun 11:44:38 AM 43.7939 -122.4339 327° Northwest 449 517 33,400 -2,164 Descending Seattle Center
Sun 11:45:39 AM 43.8983 -122.5253 328° Northwest 443 510 31,200 -2,066 Descending Seattle Center
Sun 11:46:40 AM 43.9969 -122.6142 327° Northwest 425 489 29,200 -1,918 Descending Seattle Center
Sun 11:47:41 AM 44.0917 -122.6997 327° Northwest 411 473 27,300 -1,869 Descending Seattle Center
Sun 11:48:42 AM 44.1947 -122.7472 342° North 402 463 25,400 -1,902 Descending Seattle Center
Sun 11:49:44 AM 44.3094 -122.7367 North 413 475 23,400 -1,902 Descending Seattle Center
Sun 11:50:45 AM 44.4233 -122.7261 North 404 465 21,500 -1,957 Descending Seattle Center
Sun 11:52:00 AM 44.5581 -122.7000 North  Level FlightAware Approximate
Sun 11:52:48 AM 44.6619 -122.7025 North 387 445 17,400  Level Seattle Center
Sun 11:53:48 AM 44.7639 -122.6922 North 377 434 15,500 -1,736 Descending Seattle Center
Sun 11:54:49 AM 44.8631 -122.6825 North 364 419 13,900 -1,623 Descending Seattle Center
Sun 11:55:50 AM 44.9592 -122.6731 North 353 406 12,200 -1,475 Descending Seattle Center
Sun 11:56:51 AM 45.0522 -122.6644 North 342 394 10,900 -1,377 Descending Seattle Center
Sun 11:57:52 AM 45.1411 -122.6544 North 334 384 9,400 -1,574 Descending Seattle Center
Sun 11:58:53 AM 45.2114 -122.5936 31° Northeast 308 354 7,700 -1,659 Descending Seattle Center
Sun 11:59:55 AM 45.2797 -122.5331 32° Northeast 296 341 6,000 -1,707 Descending Seattle Center
Sun 12:00:56 PM 45.3472 -122.4756 31° Northeast 290 334 4,200 -1,261 Descending Seattle Center
Sun 12:01:54 PM 45.4167 -122.4178 30° Northeast 262 302 3,500 -814 Descending Seattle Center
Sun 12:02:54 PM 45.4744 -122.3817 24° Northeast 206 237 2,600 -496 Descending Seattle Center
Sun 12:03:55 PM 45.5169 -122.4197 328° Northwest 180 207 2,500 -469 Descending Seattle Center
Sun 12:05:02 PM 45.5419 -122.4897 297° West 183 211 1,600 -810 Descending Seattle Center
Sun 12:06:01 PM 45.5633 -122.5386 302° West 179 206 800 -600 Descending Seattle Center
Sun 12:07:02 PM 45.5822 -122.5867 299° West 171 197 400 -393 Descending Seattle Center

Login

Don't have an account? Register now (free) for customized features, flight alerts, and more!